sensor_id;sensor_type;location;lat;lon;timestamp;temperature;humidity
10123;DHT22;5101;49.038;8.710;2023-07-20T00:00:25;21.00;62.50
10123;DHT22;5101;49.038;8.710;2023-07-20T00:02:51;20.90;62.80
10123;DHT22;5101;49.038;8.710;2023-07-20T00:05:17;20.90;63.30
10123;DHT22;5101;49.038;8.710;2023-07-20T00:07:43;20.80;63.40
10123;DHT22;5101;49.038;8.710;2023-07-20T00:10:09;20.80;64.50
10123;DHT22;5101;49.038;8.710;2023-07-20T00:12:35;20.80;65.00
10123;DHT22;5101;49.038;8.710;2023-07-20T00:15:00;20.70;65.40
10123;DHT22;5101;49.038;8.710;2023-07-20T00:17:26;20.70;66.20
10123;DHT22;5101;49.038;8.710;2023-07-20T00:19:54;20.70;66.50
10123;DHT22;5101;49.038;8.710;2023-07-20T00:22:20;20.70;67.00
10123;DHT22;5101;49.038;8.710;2023-07-20T00:24:45;20.70;67.00
10123;DHT22;5101;49.038;8.710;2023-07-20T00:27:11;20.60;67.10
10123;DHT22;5101;49.038;8.710;2023-07-20T00:29:36;20.60;67.60
10123;DHT22;5101;49.038;8.710;2023-07-20T00:32:02;20.60;68.20
10123;DHT22;5101;49.038;8.710;2023-07-20T00:34:30;20.60;68.10
10123;DHT22;5101;49.038;8.710;2023-07-20T00:36:56;20.50;68.00
10123;DHT22;5101;49.038;8.710;2023-07-20T00:39:21;20.50;68.50
10123;DHT22;5101;49.038;8.710;2023-07-20T00:41:47;20.40;68.50
10123;DHT22;5101;49.038;8.710;2023-07-20T00:44:12;20.40;68.50
10123;DHT22;5101;49.038;8.710;2023-07-20T00:46:38;20.40;68.40
10123;DHT22;5101;49.038;8.710;2023-07-20T00:49:04;20.40;68.50
10123;DHT22;5101;49.038;8.710;2023-07-20T00:51:31;20.30;68.50
10123;DHT22;5101;49.038;8.710;2023-07-20T00:53:57;20.30;69.70
10123;DHT22;5101;49.038;8.710;2023-07-20T00:56:23;20.30;70.60
10123;DHT22;5101;49.038;8.710;2023-07-20T00:58:48;20.20;70.60
10123;DHT22;5101;49.038;8.710;2023-07-20T01:01:14;20.20;71.30
10123;DHT22;5101;49.038;8.710;2023-07-20T01:03:39;20.10;71.20
10123;DHT22;5101;49.038;8.710;2023-07-20T01:06:22;20.10;71.60
10123;DHT22;5101;49.038;8.710;2023-07-20T01:11:58;20.10;73.10
10123;DHT22;5101;49.038;8.710;2023-07-20T01:14:25;20.00;73.20
10123;DHT22;5101;49.038;8.710;2023-07-20T01:16:51;20.00;73.30
10123;DHT22;5101;49.038;8.710;2023-07-20T01:19:17;19.90;73.80
10123;DHT22;5101;49.038;8.710;2023-07-20T01:21:53;19.90;74.20
10123;DHT22;5101;49.038;8.710;2023-07-20T01:32:31;19.70;74.40
10123;DHT22;5101;49.038;8.710;2023-07-20T01:34:58;19.70;75.00
10123;DHT22;5101;49.038;8.710;2023-07-20T01:37:25;19.70;75.50
10123;DHT22;5101;49.038;8.710;2023-07-20T01:39:54;19.60;76.30
10123;DHT22;5101;49.038;8.710;2023-07-20T01:42:23;19.60;76.70
10123;DHT22;5101;49.038;8.710;2023-07-20T01:44:53;19.60;77.00
10123;DHT22;5101;49.038;8.710;2023-07-20T01:47:19;19.60;78.20
10123;DHT22;5101;49.038;8.710;2023-07-20T01:49:44;19.50;78.70
10123;DHT22;5101;49.038;8.710;2023-07-20T01:52:10;19.50;79.10
10123;DHT22;5101;49.038;8.710;2023-07-20T01:54:36;19.40;79.10
10123;DHT22;5101;49.038;8.710;2023-07-20T01:57:01;19.30;79.40
10123;DHT22;5101;49.038;8.710;2023-07-20T01:59:27;19.30;80.10
10123;DHT22;5101;49.038;8.710;2023-07-20T02:01:52;19.30;80.50
10123;DHT22;5101;49.038;8.710;2023-07-20T02:04:18;19.20;80.80
10123;DHT22;5101;49.038;8.710;2023-07-20T02:06:43;19.20;81.00
10123;DHT22;5101;49.038;8.710;2023-07-20T02:09:09;19.10;81.00
10123;DHT22;5101;49.038;8.710;2023-07-20T02:11:34;19.10;81.10
10123;DHT22;5101;49.038;8.710;2023-07-20T02:14:00;19.00;81.30
10123;DHT22;5101;49.038;8.710;2023-07-20T02:16:26;19.00;81.90
10123;DHT22;5101;49.038;8.710;2023-07-20T02:18:52;18.90;82.20
10123;DHT22;5101;49.038;8.710;2023-07-20T02:21:18;18.90;82.60
10123;DHT22;5101;49.038;8.710;2023-07-20T02:23:43;18.90;82.90
10123;DHT22;5101;49.038;8.710;2023-07-20T02:26:09;18.80;82.90
10123;DHT22;5101;49.038;8.710;2023-07-20T02:28:34;18.80;83.10
10123;DHT22;5101;49.038;8.710;2023-07-20T02:31:00;18.80;83.80
10123;DHT22;5101;49.038;8.710;2023-07-20T02:33:26;18.70;83.90
10123;DHT22;5101;49.038;8.710;2023-07-20T02:35:51;18.70;84.20
10123;DHT22;5101;49.038;8.710;2023-07-20T02:38:17;18.70;84.70
10123;DHT22;5101;49.038;8.710;2023-07-20T02:40:43;18.60;85.80
10123;DHT22;5101;49.038;8.710;2023-07-20T02:43:08;18.60;86.00
10123;DHT22;5101;49.038;8.710;2023-07-20T02:45:35;18.60;86.20
10123;DHT22;5101;49.038;8.710;2023-07-20T02:48:00;18.50;86.20
10123;DHT22;5101;49.038;8.710;2023-07-20T02:50:26;18.50;85.80
10123;DHT22;5101;49.038;8.710;2023-07-20T02:52:52;18.50;86.30
10123;DHT22;5101;49.038;8.710;2023-07-20T02:55:17;18.40;87.30
10123;DHT22;5101;49.038;8.710;2023-07-20T02:57:43;18.40;87.30
10123;DHT22;5101;49.038;8.710;2023-07-20T03:00:08;18.40;88.00
10123;DHT22;5101;49.038;8.710;2023-07-20T03:02:34;18.30;88.00
10123;DHT22;5101;49.038;8.710;2023-07-20T03:05:00;18.30;88.30
10123;DHT22;5101;49.038;8.710;2023-07-20T03:07:27;18.20;88.00
10123;DHT22;5101;49.038;8.710;2023-07-20T03:09:54;18.20;88.40
10123;DHT22;5101;49.038;8.710;2023-07-20T03:12:20;18.20;88.60
10123;DHT22;5101;49.038;8.710;2023-07-20T03:14:46;18.10;88.90
10123;DHT22;5101;49.038;8.710;2023-07-20T03:17:11;18.00;89.30
10123;DHT22;5101;49.038;8.710;2023-07-20T03:19:37;18.00;89.20
10123;DHT22;5101;49.038;8.710;2023-07-20T03:22:02;17.90;89.60
10123;DHT22;5101;49.038;8.710;2023-07-20T03:24:28;17.90;90.30
10123;DHT22;5101;49.038;8.710;2023-07-20T03:26:53;17.80;90.20
10123;DHT22;5101;49.038;8.710;2023-07-20T03:29:19;17.80;90.50
10123;DHT22;5101;49.038;8.710;2023-07-20T03:31:45;17.80;90.80
10123;DHT22;5101;49.038;8.710;2023-07-20T03:34:10;17.80;90.70
10123;DHT22;5101;49.038;8.710;2023-07-20T03:36:35;17.70;90.80
10123;DHT22;5101;49.038;8.710;2023-07-20T03:39:01;17.70;90.80
10123;DHT22;5101;49.038;8.710;2023-07-20T03:41:28;17.70;91.00
10123;DHT22;5101;49.038;8.710;2023-07-20T03:43:53;17.60;91.00
10123;DHT22;5101;49.038;8.710;2023-07-20T03:46:19;17.60;91.10
10123;DHT22;5101;49.038;8.710;2023-07-20T03:48:45;17.60;91.50
10123;DHT22;5101;49.038;8.710;2023-07-20T03:51:10;17.50;91.50
10123;DHT22;5101;49.038;8.710;2023-07-20T03:53:36;17.50;91.30
10123;DHT22;5101;49.038;8.710;2023-07-20T03:56:01;17.50;91.50
10123;DHT22;5101;49.038;8.710;2023-07-20T03:58:27;17.50;93.00
10123;DHT22;5101;49.038;8.710;2023-07-20T04:00:52;17.50;92.70
10123;DHT22;5101;49.038;8.710;2023-07-20T04:03:19;17.50;92.90
10123;DHT22;5101;49.038;8.710;2023-07-20T04:05:45;17.50;93.30
10123;DHT22;5101;49.038;8.710;2023-07-20T04:08:11;17.50;93.40
10123;DHT22;5101;49.038;8.710;2023-07-20T04:10:37;17.50;93.30
10123;DHT22;5101;49.038;8.710;2023-07-20T04:13:03;17.40;93.30
10123;DHT22;5101;49.038;8.710;2023-07-20T04:15:29;17.40;93.40
10123;DHT22;5101;49.038;8.710;2023-07-20T04:17:55;17.40;93.40
10123;DHT22;5101;49.038;8.710;2023-07-20T04:20:22;17.40;93.40
10123;DHT22;5101;49.038;8.710;2023-07-20T04:22:47;17.40;93.50
10123;DHT22;5101;49.038;8.710;2023-07-20T04:25:13;17.40;93.70
10123;DHT22;5101;49.038;8.710;2023-07-20T04:27:38;17.30;93.60
10123;DHT22;5101;49.038;8.710;2023-07-20T04:30:06;17.40;93.80
10123;DHT22;5101;49.038;8.710;2023-07-20T04:32:32;17.40;94.20
10123;DHT22;5101;49.038;8.710;2023-07-20T04:34:59;17.40;94.00
10123;DHT22;5101;49.038;8.710;2023-07-20T04:37:24;17.40;94.10
10123;DHT22;5101;49.038;8.710;2023-07-20T04:39:50;17.40;93.90
10123;DHT22;5101;49.038;8.710;2023-07-20T04:42:15;17.40;94.20
10123;DHT22;5101;49.038;8.710;2023-07-20T04:44:41;17.40;94.30
10123;DHT22;5101;49.038;8.710;2023-07-20T04:47:07;17.50;94.20
10123;DHT22;5101;49.038;8.710;2023-07-20T04:49:34;17.60;94.40
10123;DHT22;5101;49.038;8.710;2023-07-20T04:51:59;17.50;94.20
10123;DHT22;5101;49.038;8.710;2023-07-20T04:54:25;17.50;94.40
10123;DHT22;5101;49.038;8.710;2023-07-20T04:56:52;17.50;94.80
10123;DHT22;5101;49.038;8.710;2023-07-20T04:59:18;17.50;94.80
10123;DHT22;5101;49.038;8.710;2023-07-20T05:01:44;17.60;94.90
10123;DHT22;5101;49.038;8.710;2023-07-20T05:04:09;17.60;95.10
10123;DHT22;5101;49.038;8.710;2023-07-20T05:06:35;17.60;94.60
10123;DHT22;5101;49.038;8.710;2023-07-20T05:09:00;17.60;94.10
10123;DHT22;5101;49.038;8.710;2023-07-20T05:11:26;17.70;93.90
10123;DHT22;5101;49.038;8.710;2023-07-20T05:13:51;17.70;94.20
10123;DHT22;5101;49.038;8.710;2023-07-20T05:16:17;17.80;94.60
10123;DHT22;5101;49.038;8.710;2023-07-20T05:18:42;17.80;94.70
10123;DHT22;5101;49.038;8.710;2023-07-20T05:21:08;17.80;94.90
10123;DHT22;5101;49.038;8.710;2023-07-20T05:23:33;17.90;95.00
10123;DHT22;5101;49.038;8.710;2023-07-20T05:25:59;17.90;94.90
10123;DHT22;5101;49.038;8.710;2023-07-20T05:28:25;18.00;94.40
10123;DHT22;5101;49.038;8.710;2023-07-20T05:30:52;18.00;94.20
10123;DHT22;5101;49.038;8.710;2023-07-20T05:33:19;18.10;94.10
10123;DHT22;5101;49.038;8.710;2023-07-20T05:35:44;18.10;93.70
10123;DHT22;5101;49.038;8.710;2023-07-20T05:38:10;18.20;93.30
10123;DHT22;5101;49.038;8.710;2023-07-20T05:40:40;18.30;93.40
10123;DHT22;5101;49.038;8.710;2023-07-20T05:43:06;18.30;93.50
10123;DHT22;5101;49.038;8.710;2023-07-20T05:45:31;18.40;93.70
10123;DHT22;5101;49.038;8.710;2023-07-20T05:47:57;18.50;93.60
10123;DHT22;5101;49.038;8.710;2023-07-20T05:50:22;18.50;93.70
10123;DHT22;5101;49.038;8.710;2023-07-20T05:52:48;18.60;93.90
10123;DHT22;5101;49.038;8.710;2023-07-20T05:55:13;18.70;94.20
10123;DHT22;5101;49.038;8.710;2023-07-20T05:57:39;18.80;94.30
10123;DHT22;5101;49.038;8.710;2023-07-20T06:00:09;18.80;94.00
10123;DHT22;5101;49.038;8.710;2023-07-20T06:02:35;18.90;94.00
10123;DHT22;5101;49.038;8.710;2023-07-20T06:05:00;18.90;93.80
10123;DHT22;5101;49.038;8.710;2023-07-20T06:07:26;19.00;93.40
10123;DHT22;5101;49.038;8.710;2023-07-20T06:09:52;19.00;93.00
10123;DHT22;5101;49.038;8.710;2023-07-20T06:12:17;19.20;92.80
10123;DHT22;5101;49.038;8.710;2023-07-20T06:14:43;19.30;92.30
10123;DHT22;5101;49.038;8.710;2023-07-20T06:17:08;19.40;91.80
10123;DHT22;5101;49.038;8.710;2023-07-20T06:19:35;19.50;91.50
10123;DHT22;5101;49.038;8.710;2023-07-20T06:22:01;19.60;91.10
10123;DHT22;5101;49.038;8.710;2023-07-20T06:24:26;19.70;90.90
10123;DHT22;5101;49.038;8.710;2023-07-20T06:26:52;19.80;90.90
10123;DHT22;5101;49.038;8.710;2023-07-20T06:29:17;20.00;90.60
10123;DHT22;5101;49.038;8.710;2023-07-20T06:31:43;20.20;90.50
10123;DHT22;5101;49.038;8.710;2023-07-20T06:34:08;20.50;90.50
10123;DHT22;5101;49.038;8.710;2023-07-20T06:36:34;20.80;90.20
10123;DHT22;5101;49.038;8.710;2023-07-20T06:39:00;21.10;88.90
10123;DHT22;5101;49.038;8.710;2023-07-20T06:41:26;21.60;87.10
10123;DHT22;5101;49.038;8.710;2023-07-20T06:43:51;21.90;84.60
10123;DHT22;5101;49.038;8.710;2023-07-20T06:46:17;22.30;82.10
10123;DHT22;5101;49.038;8.710;2023-07-20T06:48:43;22.70;79.50
10123;DHT22;5101;49.038;8.710;2023-07-20T06:51:08;23.10;77.80
10123;DHT22;5101;49.038;8.710;2023-07-20T06:53:34;23.50;75.90
10123;DHT22;5101;49.038;8.710;2023-07-20T06:56:00;23.80;73.80
10123;DHT22;5101;49.038;8.710;2023-07-20T06:58:25;24.00;72.20
10123;DHT22;5101;49.038;8.710;2023-07-20T07:00:51;24.20;67.80
10123;DHT22;5101;49.038;8.710;2023-07-20T07:03:17;24.40;68.60
10123;DHT22;5101;49.038;8.710;2023-07-20T07:05:43;24.60;69.30
10123;DHT22;5101;49.038;8.710;2023-07-20T07:08:10;24.90;68.00
10123;DHT22;5101;49.038;8.710;2023-07-20T07:10:36;25.20;67.50
10123;DHT22;5101;49.038;8.710;2023-07-20T07:13:02;25.50;66.60
10123;DHT22;5101;49.038;8.710;2023-07-20T07:15:27;25.70;65.00
10123;DHT22;5101;49.038;8.710;2023-07-20T07:17:53;25.90;63.50
10123;DHT22;5101;49.038;8.710;2023-07-20T07:20:19;25.90;62.10
10123;DHT22;5101;49.038;8.710;2023-07-20T07:22:44;25.90;61.10
10123;DHT22;5101;49.038;8.710;2023-07-20T07:25:10;26.00;60.10
10123;DHT22;5101;49.038;8.710;2023-07-20T07:27:36;26.20;58.30
10123;DHT22;5101;49.038;8.710;2023-07-20T07:30:03;26.20;57.30
10123;DHT22;5101;49.038;8.710;2023-07-20T07:32:28;26.20;57.30
10123;DHT22;5101;49.038;8.710;2023-07-20T07:34:54;26.30;57.10
10123;DHT22;5101;49.038;8.710;2023-07-20T07:37:20;26.50;56.80
10123;DHT22;5101;49.038;8.710;2023-07-20T07:39:46;26.70;57.70
10123;DHT22;5101;49.038;8.710;2023-07-20T07:42:12;26.90;57.80
10123;DHT22;5101;49.038;8.710;2023-07-20T07:44:38;27.10;57.50
10123;DHT22;5101;49.038;8.710;2023-07-20T07:47:04;27.20;55.70
10123;DHT22;5101;49.038;8.710;2023-07-20T07:49:29;27.40;54.80
10123;DHT22;5101;49.038;8.710;2023-07-20T07:51:56;27.60;54.60
10123;DHT22;5101;49.038;8.710;2023-07-20T07:54:22;27.80;53.50
10123;DHT22;5101;49.038;8.710;2023-07-20T07:56:47;27.90;50.80
10123;DHT22;5101;49.038;8.710;2023-07-20T07:59:13;28.10;49.10
10123;DHT22;5101;49.038;8.710;2023-07-20T08:01:38;28.20;48.90
10123;DHT22;5101;49.038;8.710;2023-07-20T08:04:04;28.40;49.20
10123;DHT22;5101;49.038;8.710;2023-07-20T08:06:29;28.50;47.80
10123;DHT22;5101;49.038;8.710;2023-07-20T08:08:55;28.50;46.40
10123;DHT22;5101;49.038;8.710;2023-07-20T08:11:21;28.60;45.60
10123;DHT22;5101;49.038;8.710;2023-07-20T08:13:46;28.60;43.80
10123;DHT22;5101;49.038;8.710;2023-07-20T08:16:12;28.60;44.70
10123;DHT22;5101;49.038;8.710;2023-07-20T08:18:37;28.70;44.80
10123;DHT22;5101;49.038;8.710;2023-07-20T08:21:03;28.80;45.30
10123;DHT22;5101;49.038;8.710;2023-07-20T08:23:28;28.80;44.90
10123;DHT22;5101;49.038;8.710;2023-07-20T08:25:54;28.80;44.80
10123;DHT22;5101;49.038;8.710;2023-07-20T08:28:20;28.80;43.60
10123;DHT22;5101;49.038;8.710;2023-07-20T08:30:47;28.80;43.10
10123;DHT22;5101;49.038;8.710;2023-07-20T08:33:14;28.70;42.60
10123;DHT22;5101;49.038;8.710;2023-07-20T08:35:39;28.40;42.90
10123;DHT22;5101;49.038;8.710;2023-07-20T08:38:06;28.30;43.50
10123;DHT22;5101;49.038;8.710;2023-07-20T08:40:33;28.00;44.20
10123;DHT22;5101;49.038;8.710;2023-07-20T08:42:59;27.90;43.70
10123;DHT22;5101;49.038;8.710;2023-07-20T08:45:28;27.70;44.90
10123;DHT22;5101;49.038;8.710;2023-07-20T08:47:58;27.60;46.00
10123;DHT22;5101;49.038;8.710;2023-07-20T08:50:26;27.50;46.50
10123;DHT22;5101;49.038;8.710;2023-07-20T08:52:52;27.50;47.40
10123;DHT22;5101;49.038;8.710;2023-07-20T08:55:20;27.40;48.40
10123;DHT22;5101;49.038;8.710;2023-07-20T08:57:49;27.40;47.80
10123;DHT22;5101;49.038;8.710;2023-07-20T09:00:16;27.50;47.20
10123;DHT22;5101;49.038;8.710;2023-07-20T09:02:44;27.30;46.80
10123;DHT22;5101;49.038;8.710;2023-07-20T09:05:10;27.30;46.30
10123;DHT22;5101;49.038;8.710;2023-07-20T09:07:36;27.10;46.60
10123;DHT22;5101;49.038;8.710;2023-07-20T09:10:02;27.10;45.80
10123;DHT22;5101;49.038;8.710;2023-07-20T09:12:34;27.20;45.60
10123;DHT22;5101;49.038;8.710;2023-07-20T09:15:00;27.30;46.00
10123;DHT22;5101;49.038;8.710;2023-07-20T09:17:26;27.40;46.40
10123;DHT22;5101;49.038;8.710;2023-07-20T09:19:53;27.50;45.90
10123;DHT22;5101;49.038;8.710;2023-07-20T09:22:19;27.50;44.80
10123;DHT22;5101;49.038;8.710;2023-07-20T09:24:45;27.50;43.90
10123;DHT22;5101;49.038;8.710;2023-07-20T09:27:10;27.30;42.60
10123;DHT22;5101;49.038;8.710;2023-07-20T09:29:56;27.30;42.00
10123;DHT22;5101;49.038;8.710;2023-07-20T09:32:22;27.20;41.90
10123;DHT22;5101;49.038;8.710;2023-07-20T09:34:50;27.20;41.30
10123;DHT22;5101;49.038;8.710;2023-07-20T09:37:23;27.20;40.90
10123;DHT22;5101;49.038;8.710;2023-07-20T09:39:51;27.20;41.60
10123;DHT22;5101;49.038;8.710;2023-07-20T09:42:17;27.20;43.00
10123;DHT22;5101;49.038;8.710;2023-07-20T09:44:44;27.30;44.80
10123;DHT22;5101;49.038;8.710;2023-07-20T09:47:10;27.20;44.10
10123;DHT22;5101;49.038;8.710;2023-07-20T09:49:42;27.20;44.00
10123;DHT22;5101;49.038;8.710;2023-07-20T09:52:11;27.20;44.90
10123;DHT22;5101;49.038;8.710;2023-07-20T09:54:40;27.10;44.90
10123;DHT22;5101;49.038;8.710;2023-07-20T09:57:11;27.00;45.80
10123;DHT22;5101;49.038;8.710;2023-07-20T09:59:39;27.00;46.70
10123;DHT22;5101;49.038;8.710;2023-07-20T10:02:11;27.10;46.50
10123;DHT22;5101;49.038;8.710;2023-07-20T10:04:39;27.20;45.40
10123;DHT22;5101;49.038;8.710;2023-07-20T10:07:09;27.20;45.70
10123;DHT22;5101;49.038;8.710;2023-07-20T10:09:39;27.30;45.10
10123;DHT22;5101;49.038;8.710;2023-07-20T10:12:05;27.40;44.20
10123;DHT22;5101;49.038;8.710;2023-07-20T10:14:38;27.50;43.20
10123;DHT22;5101;49.038;8.710;2023-07-20T10:17:05;27.60;42.30
10123;DHT22;5101;49.038;8.710;2023-07-20T10:19:39;27.50;41.40
10123;DHT22;5101;49.038;8.710;2023-07-20T10:22:14;27.60;42.30
10123;DHT22;5101;49.038;8.710;2023-07-20T10:24:45;27.70;42.40
10123;DHT22;5101;49.038;8.710;2023-07-20T10:27:11;27.80;41.50
10123;DHT22;5101;49.038;8.710;2023-07-20T10:29:37;27.90;41.50
10123;DHT22;5101;49.038;8.710;2023-07-20T10:32:04;27.90;40.10
10123;DHT22;5101;49.038;8.710;2023-07-20T10:34:29;28.00;37.30
10123;DHT22;5101;49.038;8.710;2023-07-20T10:36:55;28.10;36.10
10123;DHT22;5101;49.038;8.710;2023-07-20T10:39:25;28.30;36.60
10123;DHT22;5101;49.038;8.710;2023-07-20T10:42:03;28.40;36.10
10123;DHT22;5101;49.038;8.710;2023-07-20T10:44:30;28.50;36.50
10123;DHT22;5101;49.038;8.710;2023-07-20T10:47:03;28.50;36.80
10123;DHT22;5101;49.038;8.710;2023-07-20T10:49:33;28.50;36.80
10123;DHT22;5101;49.038;8.710;2023-07-20T10:52:00;28.60;36.20
10123;DHT22;5101;49.038;8.710;2023-07-20T10:56:56;28.60;36.90
10123;DHT22;5101;49.038;8.710;2023-07-20T11:01:54;28.50;36.20
10123;DHT22;5101;49.038;8.710;2023-07-20T11:07:03;28.80;35.70
10123;DHT22;5101;49.038;8.710;2023-07-20T11:09:34;28.70;35.40
10123;DHT22;5101;49.038;8.710;2023-07-20T11:12:10;28.60;35.10
10123;DHT22;5101;49.038;8.710;2023-07-20T11:14:43;28.50;34.80
10123;DHT22;5101;49.038;8.710;2023-07-20T11:17:13;28.50;35.40
10123;DHT22;5101;49.038;8.710;2023-07-20T11:19:39;28.40;36.80
10123;DHT22;5101;49.038;8.710;2023-07-20T11:22:05;28.50;36.50
10123;DHT22;5101;49.038;8.710;2023-07-20T11:24:33;28.50;36.20
10123;DHT22;5101;49.038;8.710;2023-07-20T11:26:59;28.40;35.20
10123;DHT22;5101;49.038;8.710;2023-07-20T11:29:26;28.50;35.10
10123;DHT22;5101;49.038;8.710;2023-07-20T11:31:52;28.40;34.20
10123;DHT22;5101;49.038;8.710;2023-07-20T11:34:18;28.20;34.10
10123;DHT22;5101;49.038;8.710;2023-07-20T11:36:46;28.10;35.40
10123;DHT22;5101;49.038;8.710;2023-07-20T11:39:21;28.10;36.10
10123;DHT22;5101;49.038;8.710;2023-07-20T11:41:52;28.10;35.20
10123;DHT22;5101;49.038;8.710;2023-07-20T11:44:18;27.90;34.80
10123;DHT22;5101;49.038;8.710;2023-07-20T11:46:44;27.70;35.10
10123;DHT22;5101;49.038;8.710;2023-07-20T11:49:10;27.60;35.00
10123;DHT22;5101;49.038;8.710;2023-07-20T11:51:36;27.50;36.20
10123;DHT22;5101;49.038;8.710;2023-07-20T11:54:03;27.50;35.50
10123;DHT22;5101;49.038;8.710;2023-07-20T11:56:29;27.60;35.70
10123;DHT22;5101;49.038;8.710;2023-07-20T11:58:58;27.60;34.10
10123;DHT22;5101;49.038;8.710;2023-07-20T12:01:25;27.70;33.80
10123;DHT22;5101;49.038;8.710;2023-07-20T12:03:51;27.70;34.40
10123;DHT22;5101;49.038;8.710;2023-07-20T12:06:17;27.80;35.60
10123;DHT22;5101;49.038;8.710;2023-07-20T12:08:43;27.70;35.30
10123;DHT22;5101;49.038;8.710;2023-07-20T12:11:10;27.70;35.30
10123;DHT22;5101;49.038;8.710;2023-07-20T12:13:42;27.60;35.10
10123;DHT22;5101;49.038;8.710;2023-07-20T12:16:13;27.70;35.30
10123;DHT22;5101;49.038;8.710;2023-07-20T12:18:40;27.80;35.00
10123;DHT22;5101;49.038;8.710;2023-07-20T12:21:07;27.80;34.00
10123;DHT22;5101;49.038;8.710;2023-07-20T12:23:38;27.80;33.90
10123;DHT22;5101;49.038;8.710;2023-07-20T12:26:06;28.00;34.50
10123;DHT22;5101;49.038;8.710;2023-07-20T12:28:32;28.00;35.00
10123;DHT22;5101;49.038;8.710;2023-07-20T12:30:58;28.00;34.40
10123;DHT22;5101;49.038;8.710;2023-07-20T12:33:23;28.00;35.10
10123;DHT22;5101;49.038;8.710;2023-07-20T12:35:49;28.10;35.50
10123;DHT22;5101;49.038;8.710;2023-07-20T12:38:15;28.00;34.20
10123;DHT22;5101;49.038;8.710;2023-07-20T12:40:42;28.10;33.70
10123;DHT22;5101;49.038;8.710;2023-07-20T12:43:07;28.10;33.10
10123;DHT22;5101;49.038;8.710;2023-07-20T12:45:33;28.10;33.10
10123;DHT22;5101;49.038;8.710;2023-07-20T12:47:59;28.00;33.30
10123;DHT22;5101;49.038;8.710;2023-07-20T12:50:25;28.10;33.80
10123;DHT22;5101;49.038;8.710;2023-07-20T12:52:50;28.10;32.80
10123;DHT22;5101;49.038;8.710;2023-07-20T12:55:16;28.10;32.70
10123;DHT22;5101;49.038;8.710;2023-07-20T12:57:41;28.20;32.60
10123;DHT22;5101;49.038;8.710;2023-07-20T13:00:09;28.20;33.00
10123;DHT22;5101;49.038;8.710;2023-07-20T13:02:35;28.30;33.20
10123;DHT22;5101;49.038;8.710;2023-07-20T13:05:02;28.40;33.50
10123;DHT22;5101;49.038;8.710;2023-07-20T13:07:31;28.50;33.10
10123;DHT22;5101;49.038;8.710;2023-07-20T13:09:58;28.50;32.20
10123;DHT22;5101;49.038;8.710;2023-07-20T13:12:29;28.50;31.60
10123;DHT22;5101;49.038;8.710;2023-07-20T13:14:55;28.60;32.40
10123;DHT22;5101;49.038;8.710;2023-07-20T13:17:22;28.60;31.70
10123;DHT22;5101;49.038;8.710;2023-07-20T13:19:48;28.60;31.60
10123;DHT22;5101;49.038;8.710;2023-07-20T13:22:14;28.60;31.70
10123;DHT22;5101;49.038;8.710;2023-07-20T13:24:40;28.60;31.90
10123;DHT22;5101;49.038;8.710;2023-07-20T13:27:06;28.60;31.20
10123;DHT22;5101;49.038;8.710;2023-07-20T13:29:31;28.70;30.50
10123;DHT22;5101;49.038;8.710;2023-07-20T13:31:58;28.70;29.90
10123;DHT22;5101;49.038;8.710;2023-07-20T13:34:24;28.70;30.00
10123;DHT22;5101;49.038;8.710;2023-07-20T13:36:50;28.70;29.90
10123;DHT22;5101;49.038;8.710;2023-07-20T13:39:16;28.80;29.50
10123;DHT22;5101;49.038;8.710;2023-07-20T13:41:42;28.80;29.40
10123;DHT22;5101;49.038;8.710;2023-07-20T13:44:07;28.80;29.70
10123;DHT22;5101;49.038;8.710;2023-07-20T13:46:33;28.70;29.90
10123;DHT22;5101;49.038;8.710;2023-07-20T13:48:59;28.70;29.90
10123;DHT22;5101;49.038;8.710;2023-07-20T13:51:25;28.70;30.60
10123;DHT22;5101;49.038;8.710;2023-07-20T13:53:51;28.70;30.50
10123;DHT22;5101;49.038;8.710;2023-07-20T13:56:17;28.70;29.90
10123;DHT22;5101;49.038;8.710;2023-07-20T13:58:42;28.80;29.40
10123;DHT22;5101;49.038;8.710;2023-07-20T14:01:08;28.80;29.00
10123;DHT22;5101;49.038;8.710;2023-07-20T14:03:33;28.70;29.20
10123;DHT22;5101;49.038;8.710;2023-07-20T14:05:59;28.50;29.30
10123;DHT22;5101;49.038;8.710;2023-07-20T14:08:24;28.50;29.50
10123;DHT22;5101;49.038;8.710;2023-07-20T14:10:50;28.50;29.80
10123;DHT22;5101;49.038;8.710;2023-07-20T14:13:15;28.50;29.80
10123;DHT22;5101;49.038;8.710;2023-07-20T14:15:41;28.50;29.30
10123;DHT22;5101;49.038;8.710;2023-07-20T14:18:06;28.50;28.90
10123;DHT22;5101;49.038;8.710;2023-07-20T14:20:32;28.30;28.60
10123;DHT22;5101;49.038;8.710;2023-07-20T14:22:57;28.20;28.50
10123;DHT22;5101;49.038;8.710;2023-07-20T14:25:23;28.20;29.00
10123;DHT22;5101;49.038;8.710;2023-07-20T14:27:48;28.10;29.20
10123;DHT22;5101;49.038;8.710;2023-07-20T14:30:14;28.00;29.10
10123;DHT22;5101;49.038;8.710;2023-07-20T14:32:40;28.00;29.50
10123;DHT22;5101;49.038;8.710;2023-07-20T14:35:06;28.10;30.10
10123;DHT22;5101;49.038;8.710;2023-07-20T14:37:32;28.10;30.00
10123;DHT22;5101;49.038;8.710;2023-07-20T14:39:58;28.20;30.10
10123;DHT22;5101;49.038;8.710;2023-07-20T14:42:24;28.00;29.20
10123;DHT22;5101;49.038;8.710;2023-07-20T14:44:49;28.00;29.30
10123;DHT22;5101;49.038;8.710;2023-07-20T14:47:15;27.80;29.40
10123;DHT22;5101;49.038;8.710;2023-07-20T14:49:40;27.90;29.40
10123;DHT22;5101;49.038;8.710;2023-07-20T14:52:06;27.90;28.70
10123;DHT22;5101;49.038;8.710;2023-07-20T14:54:32;27.90;29.40
10123;DHT22;5101;49.038;8.710;2023-07-20T14:56:57;27.90;29.40
10123;DHT22;5101;49.038;8.710;2023-07-20T14:59:23;27.90;29.40
10123;DHT22;5101;49.038;8.710;2023-07-20T15:01:48;27.90;29.60
10123;DHT22;5101;49.038;8.710;2023-07-20T15:04:14;27.80;29.90
10123;DHT22;5101;49.038;8.710;2023-07-20T15:06:41;27.70;29.30
10123;DHT22;5101;49.038;8.710;2023-07-20T15:09:07;27.70;29.30
10123;DHT22;5101;49.038;8.710;2023-07-20T15:11:33;27.70;29.30
10123;DHT22;5101;49.038;8.710;2023-07-20T15:13:59;27.70;29.30
10123;DHT22;5101;49.038;8.710;2023-07-20T15:16:24;27.70;29.50
10123;DHT22;5101;49.038;8.710;2023-07-20T15:18:50;27.70;29.90
10123;DHT22;5101;49.038;8.710;2023-07-20T15:21:16;27.70;29.30
10123;DHT22;5101;49.038;8.710;2023-07-20T15:23:42;27.60;29.90
10123;DHT22;5101;49.038;8.710;2023-07-20T15:26:08;27.60;29.10
10123;DHT22;5101;49.038;8.710;2023-07-20T15:28:33;27.50;29.20
10123;DHT22;5101;49.038;8.710;2023-07-20T15:31:03;27.40;28.40
10123;DHT22;5101;49.038;8.710;2023-07-20T15:33:29;27.40;28.10
10123;DHT22;5101;49.038;8.710;2023-07-20T15:35:55;27.40;28.30
10123;DHT22;5101;49.038;8.710;2023-07-20T15:38:21;27.40;28.60
10123;DHT22;5101;49.038;8.710;2023-07-20T15:40:49;27.30;28.40
10123;DHT22;5101;49.038;8.710;2023-07-20T15:43:15;27.30;28.30
10123;DHT22;5101;49.038;8.710;2023-07-20T15:45:40;27.20;28.10
10123;DHT22;5101;49.038;8.710;2023-07-20T15:48:06;27.20;28.80
10123;DHT22;5101;49.038;8.710;2023-07-20T15:50:31;27.20;28.30
10123;DHT22;5101;49.038;8.710;2023-07-20T15:52:57;27.20;28.20
10123;DHT22;5101;49.038;8.710;2023-07-20T15:55:22;27.20;28.80
10123;DHT22;5101;49.038;8.710;2023-07-20T15:57:48;27.10;28.60